createdAt,value
2018-07-21T00:01:33.630Z,18.40
2018-07-21T00:04:02.050Z,18.40
2018-07-21T00:06:30.490Z,18.50
2018-07-21T00:08:58.880Z,18.40
2018-07-21T00:11:27.340Z,18.40
2018-07-21T00:13:55.748Z,18.40
2018-07-21T00:16:24.193Z,18.40
2018-07-21T00:18:52.621Z,18.40
2018-07-21T00:21:21.061Z,18.40
2018-07-21T00:23:49.473Z,18.30
2018-07-21T00:26:17.938Z,18.30
2018-07-21T00:28:46.364Z,18.30
2018-07-21T00:31:14.793Z,18.30
2018-07-21T00:33:43.236Z,18.30
2018-07-21T00:36:11.678Z,18.20
2018-07-21T00:38:40.136Z,18.20
2018-07-21T00:41:08.618Z,18.30
2018-07-21T00:43:37.036Z,18.30
2018-07-21T00:48:33.610Z,18.20
2018-07-21T00:51:02.046Z,18.20
2018-07-21T00:53:32.379Z,18.20
2018-07-21T00:56:02.309Z,18.20
2018-07-21T00:58:31.099Z,18.30
2018-07-21T01:00:59.764Z,18.30
2018-07-21T01:03:28.197Z,18.30
2018-07-21T01:05:56.631Z,18.30
2018-07-21T01:08:25.075Z,18.20
2018-07-21T01:10:53.624Z,18.20
2018-07-21T01:13:22.043Z,18.20
2018-07-21T01:15:50.446Z,18.30
2018-07-21T01:18:18.874Z,18.30
2018-07-21T01:20:47.300Z,18.30
2018-07-21T01:23:15.742Z,18.20
2018-07-21T01:25:44.183Z,18.20
2018-07-21T01:28:12.581Z,18.30
2018-07-21T01:30:41.024Z,18.20
2018-07-21T01:33:09.444Z,18.10
2018-07-21T01:35:38.002Z,18.10
2018-07-21T01:38:06.458Z,18.00
2018-07-21T01:40:34.840Z,18.00
2018-07-21T01:43:03.297Z,18.10
2018-07-21T01:45:31.746Z,18.00
2018-07-21T01:48:00.186Z,18.10
2018-07-21T01:50:28.773Z,18.00
2018-07-21T01:52:57.199Z,18.00
2018-07-21T01:55:25.684Z,18.00
2018-07-21T01:57:54.297Z,18.00
2018-07-21T02:00:22.790Z,18.00
2018-07-21T02:02:51.204Z,18.00
2018-07-21T02:05:19.663Z,18.10
2018-07-21T02:07:48.077Z,18.00
2018-07-21T02:10:16.554Z,18.00
2018-07-21T02:12:44.980Z,18.00
2018-07-21T02:15:13.420Z,18.00
2018-07-21T02:17:41.852Z,18.10
2018-07-21T02:20:10.281Z,18.00
2018-07-21T02:22:38.773Z,18.00
2018-07-21T02:25:07.189Z,18.00
2018-07-21T02:27:35.640Z,18.00
2018-07-21T02:30:04.742Z,18.00
2018-07-21T02:32:33.177Z,18.00
2018-07-21T02:35:01.629Z,17.90
2018-07-21T02:37:30.052Z,18.00
2018-07-21T02:39:58.463Z,17.90
2018-07-21T02:42:26.924Z,17.80
2018-07-21T02:44:55.507Z,17.90
2018-07-21T02:47:23.951Z,18.00
2018-07-21T02:52:21.390Z,18.00
2018-07-21T02:54:49.833Z,17.80
2018-07-21T02:57:18.282Z,17.50
2018-07-21T02:59:46.782Z,17.40
2018-07-21T03:02:15.200Z,17.40
2018-07-21T03:04:43.625Z,17.30
2018-07-21T03:07:12.117Z,17.30
2018-07-21T03:09:40.547Z,17.20
2018-07-21T03:12:09.144Z,17.20
2018-07-21T03:14:37.596Z,17.30
2018-07-21T03:17:06.067Z,17.20
2018-07-21T03:19:34.699Z,17.30
2018-07-21T03:22:03.154Z,17.40
2018-07-21T03:24:31.602Z,17.40
2018-07-21T03:27:00.052Z,17.50
2018-07-21T03:29:28.497Z,17.50
2018-07-21T03:31:56.921Z,17.50
2018-07-21T03:34:25.372Z,17.50
2018-07-21T03:36:53.850Z,17.50
2018-07-21T03:39:22.329Z,17.60
2018-07-21T03:41:50.784Z,17.60
2018-07-21T03:44:19.264Z,17.70
2018-07-21T03:46:47.696Z,17.70
2018-07-21T03:49:16.177Z,17.70
2018-07-21T03:51:44.666Z,17.70
2018-07-21T03:54:13.189Z,17.60
2018-07-21T03:56:41.647Z,17.70
2018-07-21T03:59:10.309Z,17.70
2018-07-21T04:01:39.038Z,17.70
2018-07-21T04:04:07.791Z,17.80
2018-07-21T04:06:36.290Z,17.80
2018-07-21T04:09:07.082Z,17.80
2018-07-21T04:11:35.576Z,17.70
2018-07-21T04:14:04.192Z,17.80
2018-07-21T04:16:32.730Z,17.80
2018-07-21T04:19:01.247Z,17.80
2018-07-21T04:21:29.778Z,17.70
2018-07-21T04:23:58.284Z,17.70
2018-07-21T04:26:26.743Z,17.70
2018-07-21T04:28:55.320Z,17.70
2018-07-21T04:31:23.877Z,17.80
2018-07-21T04:33:52.357Z,17.80
2018-07-21T04:36:20.868Z,17.70
2018-07-21T04:38:49.380Z,17.80
2018-07-21T04:41:17.921Z,17.90
2018-07-21T04:43:46.478Z,17.80
2018-07-21T04:46:15.107Z,17.80
2018-07-21T04:48:43.730Z,17.90
2018-07-21T04:51:12.325Z,17.90
2018-07-21T04:53:40.849Z,18.00
2018-07-21T04:56:09.385Z,18.00
2018-07-21T04:58:37.889Z,18.00
2018-07-21T05:01:06.484Z,18.00
2018-07-21T05:03:35.001Z,18.00
2018-07-21T05:06:03.570Z,18.10
2018-07-21T05:08:32.117Z,18.10
2018-07-21T05:11:00.565Z,18.20
2018-07-21T05:13:29.114Z,18.10
2018-07-21T05:15:57.744Z,18.10
2018-07-21T05:18:26.343Z,18.20
2018-07-21T05:20:54.890Z,18.20
2018-07-21T05:23:23.526Z,18.20
2018-07-21T05:25:52.044Z,18.20
2018-07-21T05:28:20.576Z,18.20
2018-07-21T05:30:49.179Z,18.30
2018-07-21T05:33:17.758Z,18.40
2018-07-21T05:35:46.390Z,18.40
2018-07-21T05:38:15.042Z,18.50
2018-07-21T05:40:43.666Z,18.50
2018-07-21T05:43:12.236Z,18.60
2018-07-21T05:45:40.837Z,18.60
2018-07-21T05:50:37.644Z,18.60
2018-07-21T05:53:06.164Z,18.60
2018-07-21T05:55:34.778Z,18.60
2018-07-21T05:58:03.403Z,18.70
2018-07-21T06:00:31.975Z,18.70
2018-07-21T06:03:00.479Z,18.80
2018-07-21T06:05:28.953Z,18.80
2018-07-21T06:07:57.617Z,18.90
2018-07-21T06:10:26.234Z,18.90
2018-07-21T06:12:54.783Z,19.00
2018-07-21T06:15:23.361Z,19.00
2018-07-21T06:17:51.973Z,19.00
2018-07-21T06:20:20.582Z,19.10
2018-07-21T06:22:49.201Z,19.10
2018-07-21T06:25:17.713Z,19.20
2018-07-21T06:27:46.204Z,19.20
2018-07-21T06:30:14.820Z,19.20
2018-07-21T06:32:43.300Z,19.20
2018-07-21T06:35:11.757Z,19.20
2018-07-21T06:37:41.004Z,19.20
2018-07-21T06:40:09.479Z,19.20
2018-07-21T06:42:37.955Z,19.30
2018-07-21T06:45:06.506Z,19.30
2018-07-21T06:47:35.005Z,19.30
2018-07-21T06:50:03.664Z,19.30
2018-07-21T06:52:32.188Z,19.40
2018-07-21T06:55:00.850Z,19.30
2018-07-21T06:57:29.510Z,19.40
2018-07-21T06:59:57.996Z,19.40
2018-07-21T07:02:26.921Z,19.50
2018-07-21T07:04:55.952Z,19.60
2018-07-21T07:07:24.589Z,19.60
2018-07-21T07:09:57.422Z,19.70
2018-07-21T07:12:26.367Z,19.60
2018-07-21T07:14:55.359Z,19.60
2018-07-21T07:17:23.928Z,19.70
2018-07-21T07:19:52.388Z,19.80
2018-07-21T07:22:20.813Z,19.70
2018-07-21T07:24:49.262Z,19.60
2018-07-21T07:27:17.786Z,19.60
2018-07-21T07:29:46.528Z,19.60
2018-07-21T07:32:15.302Z,19.50
2018-07-21T07:34:43.888Z,19.60
2018-07-21T07:37:22.313Z,19.50
2018-07-21T07:39:51.193Z,19.50
2018-07-21T07:42:21.651Z,19.60
2018-07-21T07:44:50.110Z,19.60
2018-07-21T07:47:18.599Z,19.60
2018-07-21T07:49:47.176Z,19.60
2018-07-21T07:52:15.620Z,19.60
2018-07-21T07:54:44.098Z,19.60
2018-07-21T07:57:12.598Z,19.60
2018-07-21T07:59:41.069Z,19.50
2018-07-21T08:02:09.558Z,19.50
2018-07-21T08:04:37.992Z,19.50
2018-07-21T08:07:06.435Z,19.50
2018-07-21T08:09:34.870Z,19.50
2018-07-21T08:12:03.312Z,19.50
2018-07-21T08:14:31.753Z,19.50
2018-07-21T08:17:00.213Z,19.50
2018-07-21T08:19:28.767Z,19.50
2018-07-21T08:21:57.202Z,19.40
2018-07-21T08:24:25.706Z,19.30
2018-07-21T08:26:54.503Z,19.30
2018-07-21T08:29:23.149Z,19.40
2018-07-21T08:31:51.726Z,19.40
2018-07-21T08:34:20.379Z,19.40
2018-07-21T08:36:49.013Z,19.40
2018-07-21T08:39:17.694Z,19.40
2018-07-21T08:41:46.410Z,19.30
2018-07-21T08:44:15.085Z,19.10
2018-07-21T08:46:44.245Z,19.20
2018-07-21T08:49:13.034Z,19.20
2018-07-21T08:51:41.765Z,19.10
2018-07-21T08:54:10.758Z,19.10
2018-07-21T08:56:39.576Z,19.20
2018-07-21T08:59:08.359Z,19.20
2018-07-21T09:01:37.077Z,19.20
2018-07-21T09:04:06.174Z,19.10
2018-07-21T09:06:34.928Z,19.10
2018-07-21T09:09:03.678Z,19.10
2018-07-21T09:11:32.375Z,19.00
2018-07-21T09:14:01.162Z,19.00
2018-07-21T09:16:29.840Z,19.00
2018-07-21T09:18:58.641Z,19.10
2018-07-21T09:21:27.274Z,19.10
2018-07-21T09:23:55.897Z,19.10
2018-07-21T09:26:24.609Z,19.20
2018-07-21T09:28:53.336Z,19.20
2018-07-21T09:31:21.992Z,19.30
2018-07-21T09:36:18.941Z,19.40
2018-07-21T09:38:47.620Z,19.40
2018-07-21T09:41:16.664Z,19.30
2018-07-21T09:43:45.359Z,19.30
2018-07-21T09:46:14.078Z,19.40
2018-07-21T09:48:42.824Z,19.50
2018-07-21T09:51:11.661Z,19.60
2018-07-21T09:53:40.365Z,19.70
2018-07-21T09:56:09.057Z,19.40
2018-07-21T09:58:37.704Z,19.60
2018-07-21T10:01:06.235Z,19.70
2018-07-21T10:03:35.415Z,19.60
2018-07-21T10:06:04.360Z,19.80
2018-07-21T10:08:32.948Z,19.60
2018-07-21T10:11:01.546Z,19.50
2018-07-21T10:13:30.087Z,19.30
2018-07-21T10:15:58.753Z,19.40
2018-07-21T10:18:27.434Z,19.20
2018-07-21T10:20:55.963Z,19.50
2018-07-21T10:23:24.569Z,19.60
2018-07-21T10:25:58.430Z,19.70
2018-07-21T10:28:32.202Z,19.80
2018-07-21T10:31:00.835Z,19.90
2018-07-21T10:33:29.579Z,19.80
2018-07-21T10:35:58.195Z,20.00
2018-07-21T10:38:26.926Z,20.00
2018-07-21T10:43:24.451Z,20.40
2018-07-21T10:45:52.996Z,20.20
2018-07-21T10:48:21.847Z,20.10
2018-07-21T10:50:50.637Z,19.80
2018-07-21T10:53:26.421Z,19.80
2018-07-21T10:55:55.126Z,20.10
2018-07-21T10:58:23.834Z,20.40
2018-07-21T11:00:59.512Z,20.50
2018-07-21T11:03:28.253Z,20.70
2018-07-21T11:05:56.888Z,20.90
2018-07-21T11:08:25.925Z,20.90
2018-07-21T11:10:54.822Z,21.00
2018-07-21T11:13:23.680Z,21.30
2018-07-21T11:15:52.570Z,21.40
2018-07-21T11:18:21.349Z,21.60
2018-07-21T11:20:50.038Z,21.60
2018-07-21T11:23:19.692Z,21.50
2018-07-21T11:25:48.707Z,21.40
2018-07-21T11:28:17.630Z,21.80
2018-07-21T11:30:46.386Z,22.00
2018-07-21T11:33:15.322Z,21.80
2018-07-21T11:35:44.731Z,21.60
2018-07-21T11:38:13.673Z,21.90
2018-07-21T11:40:43.794Z,22.00
2018-07-21T11:43:12.886Z,22.20
2018-07-21T11:45:41.854Z,22.10
2018-07-21T11:48:10.914Z,22.20
2018-07-21T11:50:39.694Z,21.80
2018-07-21T11:53:08.574Z,21.90
2018-07-21T11:55:38.018Z,21.90
2018-07-21T11:58:06.990Z,21.90
2018-07-21T12:01:02.299Z,21.90
2018-07-21T12:03:37.164Z,22.00
2018-07-21T12:06:06.121Z,22.00
2018-07-21T12:08:35.382Z,21.80
2018-07-21T12:11:04.375Z,21.70
2018-07-21T12:13:33.498Z,21.60
2018-07-21T12:16:15.817Z,21.70
2018-07-21T12:18:44.910Z,21.80
2018-07-21T12:21:16.723Z,22.00
2018-07-21T12:23:45.661Z,21.70
2018-07-21T12:26:15.103Z,21.50
2018-07-21T12:28:43.990Z,21.40
2018-07-21T12:31:12.855Z,21.30
2018-07-21T12:33:41.890Z,21.50
2018-07-21T12:43:35.605Z,21.80
2018-07-21T12:46:04.456Z,21.80
2018-07-21T12:48:33.663Z,21.90
2018-07-21T12:51:02.482Z,22.30
2018-07-21T12:53:45.191Z,22.50
2018-07-21T12:57:56.401Z,22.50
2018-07-21T13:00:25.419Z,22.70
2018-07-21T13:02:54.795Z,23.00
2018-07-21T13:05:24.084Z,23.20
2018-07-21T13:07:53.119Z,23.30
2018-07-21T13:10:22.223Z,23.40
2018-07-21T13:12:51.076Z,23.40
2018-07-21T13:15:22.526Z,23.40
2018-07-21T13:17:53.566Z,23.40
2018-07-21T13:20:31.221Z,23.40
2018-07-21T13:23:02.306Z,23.50
2018-07-21T13:25:39.689Z,23.60
2018-07-21T13:28:10.268Z,23.80
2018-07-21T13:30:39.747Z,24.00
2018-07-21T13:33:10.153Z,24.10
2018-07-21T13:35:40.889Z,24.20
2018-07-21T13:38:11.704Z,24.20
2018-07-21T13:40:42.452Z,24.10
2018-07-21T13:54:23.512Z,24.20
2018-07-21T13:56:53.728Z,24.30
2018-07-21T13:59:24.204Z,25.00
2018-07-21T14:01:54.304Z,24.80
2018-07-21T14:04:23.943Z,24.90
2018-07-21T14:06:54.477Z,24.70
2018-07-21T14:09:24.362Z,24.20
2018-07-21T14:11:54.322Z,24.10
2018-07-21T14:14:24.443Z,24.30
2018-07-21T14:16:54.093Z,24.30
2018-07-21T14:19:22.918Z,24.50
2018-07-21T14:21:51.784Z,24.20
2018-07-21T14:24:20.640Z,23.90
2018-07-21T14:26:49.771Z,23.50
2018-07-21T14:29:18.717Z,23.80
2018-07-21T14:31:47.288Z,23.90
2018-07-21T14:34:15.930Z,23.70
2018-07-21T14:36:44.989Z,23.60
2018-07-21T14:39:14.052Z,23.40
2018-07-21T14:41:42.763Z,23.30
2018-07-21T14:44:11.614Z,23.30
2018-07-21T14:46:40.516Z,23.30
2018-07-21T14:49:09.407Z,23.00
2018-07-21T14:51:38.134Z,23.20
2018-07-21T14:54:07.286Z,23.50
2018-07-21T14:56:36.012Z,23.50
2018-07-21T14:59:04.799Z,23.40
2018-07-21T15:01:34.617Z,23.40
2018-07-21T15:06:49.349Z,24.10
2018-07-21T15:09:19.083Z,24.50
2018-07-21T15:14:16.985Z,24.80
2018-07-21T15:16:46.183Z,24.70
2018-07-21T15:19:15.450Z,24.70
2018-07-21T15:21:44.943Z,24.50
2018-07-21T15:24:14.256Z,24.40
2018-07-21T15:26:43.351Z,24.30
2018-07-21T15:29:12.584Z,24.20
2018-07-21T15:31:43.113Z,23.90
2018-07-21T15:34:12.373Z,24.00
2018-07-21T15:36:44.270Z,24.10
2018-07-21T15:39:13.745Z,23.80
2018-07-21T15:41:42.826Z,23.60
2018-07-21T15:44:11.906Z,23.70
2018-07-21T15:46:40.794Z,23.70
2018-07-21T15:49:09.853Z,23.20
2018-07-21T15:51:38.828Z,22.80
2018-07-21T15:54:07.433Z,22.90
2018-07-21T15:56:36.341Z,23.00
2018-07-21T15:59:05.241Z,22.90
2018-07-21T16:01:34.488Z,22.90
2018-07-21T16:04:03.877Z,22.90
2018-07-21T16:06:32.634Z,22.80
2018-07-21T16:09:01.731Z,22.80
2018-07-21T16:11:30.657Z,22.60
2018-07-21T16:13:59.756Z,22.40
2018-07-21T16:16:33.831Z,22.10
2018-07-21T16:19:04.222Z,21.90
2018-07-21T16:21:34.774Z,22.00
2018-07-21T16:24:04.013Z,21.90
2018-07-21T16:29:01.424Z,21.80
2018-07-21T16:31:30.454Z,21.80
2018-07-21T16:33:59.585Z,21.80
2018-07-21T16:36:28.843Z,21.60
2018-07-21T16:38:58.007Z,21.50
2018-07-21T16:41:27.204Z,21.50
2018-07-21T16:43:56.037Z,21.40
2018-07-21T16:48:53.840Z,21.20
2018-07-21T16:51:22.867Z,21.20
2018-07-21T16:53:52.065Z,21.10
2018-07-21T16:56:21.419Z,21.10
2018-07-21T16:58:50.598Z,21.10
2018-07-21T17:01:19.967Z,21.00
2018-07-21T17:03:49.202Z,21.00
2018-07-21T17:06:18.244Z,21.00
2018-07-21T17:08:47.324Z,20.90
